sensor_id;sensor_type;location;lat;lon;timestamp;temperature;humidity
23291;DHT22;11814;44.686;10.842;2023-04-16T00:02:11;11.50;99.90
23291;DHT22;11814;44.686;10.842;2023-04-16T00:04:37;11.40;99.90
23291;DHT22;11814;44.686;10.842;2023-04-16T00:07:03;11.40;99.90
23291;DHT22;11814;44.686;10.842;2023-04-16T00:09:28;11.40;99.90
23291;DHT22;11814;44.686;10.842;2023-04-16T00:11:54;11.30;99.90
23291;DHT22;11814;44.686;10.842;2023-04-16T00:14:20;11.20;99.90
23291;DHT22;11814;44.686;10.842;2023-04-16T00:16:46;11.20;99.90
23291;DHT22;11814;44.686;10.842;2023-04-16T00:19:12;11.20;99.90
23291;DHT22;11814;44.686;10.842;2023-04-16T00:21:38;11.10;99.90
23291;DHT22;11814;44.686;10.842;2023-04-16T00:24:04;11.00;99.90
23291;DHT22;11814;44.686;10.842;2023-04-16T00:26:29;11.00;99.90
23291;DHT22;11814;44.686;10.842;2023-04-16T00:28:55;11.00;99.90
23291;DHT22;11814;44.686;10.842;2023-04-16T00:31:28;10.90;99.90
23291;DHT22;11814;44.686;10.842;2023-04-16T00:33:55;10.80;99.90
23291;DHT22;11814;44.686;10.842;2023-04-16T00:36:22;10.80;99.90
23291;DHT22;11814;44.686;10.842;2023-04-16T00:38:48;10.90;99.90
23291;DHT22;11814;44.686;10.842;2023-04-16T00:41:14;10.80;99.90
23291;DHT22;11814;44.686;10.842;2023-04-16T00:43:39;10.80;99.90
23291;DHT22;11814;44.686;10.842;2023-04-16T00:46:06;10.80;99.90
23291;DHT22;11814;44.686;10.842;2023-04-16T00:48:33;10.80;99.90
23291;DHT22;11814;44.686;10.842;2023-04-16T00:51:00;10.80;99.90
23291;DHT22;11814;44.686;10.842;2023-04-16T00:53:27;10.80;99.90
23291;DHT22;11814;44.686;10.842;2023-04-16T00:55:54;10.80;99.90
23291;DHT22;11814;44.686;10.842;2023-04-16T00:58:20;10.80;99.90
23291;DHT22;11814;44.686;10.842;2023-04-16T01:00:46;10.80;99.90
23291;DHT22;11814;44.686;10.842;2023-04-16T01:03:12;10.80;99.90
23291;DHT22;11814;44.686;10.842;2023-04-16T01:05:38;10.70;99.90
23291;DHT22;11814;44.686;10.842;2023-04-16T01:08:03;10.70;99.90
23291;DHT22;11814;44.686;10.842;2023-04-16T01:10:29;10.50;99.90
23291;DHT22;11814;44.686;10.842;2023-04-16T01:12:55;10.40;99.90
23291;DHT22;11814;44.686;10.842;2023-04-16T01:15:21;10.40;99.90
23291;DHT22;11814;44.686;10.842;2023-04-16T01:17:47;10.40;99.90
23291;DHT22;11814;44.686;10.842;2023-04-16T01:20:12;10.40;99.90
23291;DHT22;11814;44.686;10.842;2023-04-16T01:22:38;10.50;99.90
23291;DHT22;11814;44.686;10.842;2023-04-16T01:25:04;10.50;99.90
23291;DHT22;11814;44.686;10.842;2023-04-16T01:27:30;10.50;99.90
23291;DHT22;11814;44.686;10.842;2023-04-16T01:29:57;10.50;99.90
23291;DHT22;11814;44.686;10.842;2023-04-16T01:32:22;10.50;99.90
23291;DHT22;11814;44.686;10.842;2023-04-16T01:34:48;10.50;99.90
23291;DHT22;11814;44.686;10.842;2023-04-16T01:37:14;10.50;99.90
23291;DHT22;11814;44.686;10.842;2023-04-16T01:39:40;10.60;99.90
23291;DHT22;11814;44.686;10.842;2023-04-16T01:42:05;10.60;99.90
23291;DHT22;11814;44.686;10.842;2023-04-16T01:44:31;10.50;99.90
23291;DHT22;11814;44.686;10.842;2023-04-16T01:46:57;10.50;99.90
23291;DHT22;11814;44.686;10.842;2023-04-16T01:49:23;10.50;99.90
23291;DHT22;11814;44.686;10.842;2023-04-16T01:51:48;10.50;99.90
23291;DHT22;11814;44.686;10.842;2023-04-16T01:54:14;10.50;99.90
23291;DHT22;11814;44.686;10.842;2023-04-16T01:56:40;10.50;99.90
23291;DHT22;11814;44.686;10.842;2023-04-16T01:59:06;10.50;99.90
23291;DHT22;11814;44.686;10.842;2023-04-16T02:01:31;10.60;99.90
23291;DHT22;11814;44.686;10.842;2023-04-16T02:03:57;10.60;99.90
23291;DHT22;11814;44.686;10.842;2023-04-16T02:06:23;10.70;99.90
23291;DHT22;11814;44.686;10.842;2023-04-16T02:08:48;10.80;99.90
23291;DHT22;11814;44.686;10.842;2023-04-16T02:11:14;10.80;99.90
23291;DHT22;11814;44.686;10.842;2023-04-16T02:13:40;10.80;99.90
23291;DHT22;11814;44.686;10.842;2023-04-16T02:16:06;10.80;99.90
23291;DHT22;11814;44.686;10.842;2023-04-16T02:18:32;10.80;99.90
23291;DHT22;11814;44.686;10.842;2023-04-16T02:20:58;10.90;99.90
23291;DHT22;11814;44.686;10.842;2023-04-16T02:23:24;10.90;99.90
23291;DHT22;11814;44.686;10.842;2023-04-16T02:25:50;10.90;99.90
23291;DHT22;11814;44.686;10.842;2023-04-16T02:28:16;10.90;99.90
23291;DHT22;11814;44.686;10.842;2023-04-16T02:30:42;10.90;99.90
23291;DHT22;11814;44.686;10.842;2023-04-16T02:33:09;11.00;99.90
23291;DHT22;11814;44.686;10.842;2023-04-16T02:35:36;11.00;99.90
23291;DHT22;11814;44.686;10.842;2023-04-16T02:38:03;11.00;99.90
23291;DHT22;11814;44.686;10.842;2023-04-16T02:40:30;11.00;99.90
23291;DHT22;11814;44.686;10.842;2023-04-16T02:42:56;11.00;99.90
23291;DHT22;11814;44.686;10.842;2023-04-16T02:45:22;11.00;99.90
23291;DHT22;11814;44.686;10.842;2023-04-16T02:47:48;11.10;99.90
23291;DHT22;11814;44.686;10.842;2023-04-16T02:50:14;11.10;99.90
23291;DHT22;11814;44.686;10.842;2023-04-16T02:52:40;11.10;99.90
23291;DHT22;11814;44.686;10.842;2023-04-16T02:55:06;11.10;99.90
23291;DHT22;11814;44.686;10.842;2023-04-16T02:57:33;11.20;99.90
23291;DHT22;11814;44.686;10.842;2023-04-16T02:59:58;11.20;99.90
23291;DHT22;11814;44.686;10.842;2023-04-16T03:02:24;11.20;99.90
23291;DHT22;11814;44.686;10.842;2023-04-16T03:04:51;11.30;99.90
23291;DHT22;11814;44.686;10.842;2023-04-16T03:07:16;11.30;99.90
23291;DHT22;11814;44.686;10.842;2023-04-16T03:09:43;11.30;99.90
23291;DHT22;11814;44.686;10.842;2023-04-16T03:12:09;11.30;99.90
23291;DHT22;11814;44.686;10.842;2023-04-16T03:14:34;11.30;99.90
23291;DHT22;11814;44.686;10.842;2023-04-16T03:17:00;11.30;99.90
23291;DHT22;11814;44.686;10.842;2023-04-16T03:19:26;11.30;99.90
23291;DHT22;11814;44.686;10.842;2023-04-16T03:21:52;11.40;99.90
23291;DHT22;11814;44.686;10.842;2023-04-16T03:24:17;11.40;99.90
23291;DHT22;11814;44.686;10.842;2023-04-16T03:26:43;11.50;99.90
23291;DHT22;11814;44.686;10.842;2023-04-16T03:29:09;11.50;99.90
23291;DHT22;11814;44.686;10.842;2023-04-16T03:31:34;11.50;99.90
23291;DHT22;11814;44.686;10.842;2023-04-16T03:34:00;11.50;99.90
23291;DHT22;11814;44.686;10.842;2023-04-16T03:36:26;11.50;99.90
23291;DHT22;11814;44.686;10.842;2023-04-16T03:38:52;11.50;99.90
23291;DHT22;11814;44.686;10.842;2023-04-16T03:41:18;11.50;99.90
23291;DHT22;11814;44.686;10.842;2023-04-16T03:43:43;11.50;99.90
23291;DHT22;11814;44.686;10.842;2023-04-16T03:46:09;11.50;99.90
23291;DHT22;11814;44.686;10.842;2023-04-16T03:48:35;11.50;99.90
23291;DHT22;11814;44.686;10.842;2023-04-16T03:51:02;11.50;99.90
23291;DHT22;11814;44.686;10.842;2023-04-16T03:53:28;11.50;99.90
23291;DHT22;11814;44.686;10.842;2023-04-16T03:55:54;11.50;99.90
23291;DHT22;11814;44.686;10.842;2023-04-16T03:58:20;11.50;99.90
23291;DHT22;11814;44.686;10.842;2023-04-16T04:00:45;11.50;99.90
23291;DHT22;11814;44.686;10.842;2023-04-16T04:03:12;11.50;99.90
23291;DHT22;11814;44.686;10.842;2023-04-16T04:05:42;11.40;99.90
23291;DHT22;11814;44.686;10.842;2023-04-16T04:08:08;11.40;99.90
23291;DHT22;11814;44.686;10.842;2023-04-16T04:10:34;11.40;99.90
23291;DHT22;11814;44.686;10.842;2023-04-16T04:13:02;11.40;99.90
23291;DHT22;11814;44.686;10.842;2023-04-16T04:15:28;11.50;99.90
23291;DHT22;11814;44.686;10.842;2023-04-16T04:17:54;11.40;99.90
23291;DHT22;11814;44.686;10.842;2023-04-16T04:20:20;11.40;99.90
23291;DHT22;11814;44.686;10.842;2023-04-16T04:22:46;11.40;99.90
23291;DHT22;11814;44.686;10.842;2023-04-16T04:25:12;11.40;99.90
23291;DHT22;11814;44.686;10.842;2023-04-16T04:27:37;11.50;99.90
23291;DHT22;11814;44.686;10.842;2023-04-16T04:30:04;11.50;99.90
23291;DHT22;11814;44.686;10.842;2023-04-16T04:32:30;11.50;99.90
23291;DHT22;11814;44.686;10.842;2023-04-16T04:34:56;11.50;99.90
23291;DHT22;11814;44.686;10.842;2023-04-16T04:37:22;11.50;99.90
23291;DHT22;11814;44.686;10.842;2023-04-16T04:39:48;11.50;99.90
23291;DHT22;11814;44.686;10.842;2023-04-16T04:42:16;11.50;99.90
23291;DHT22;11814;44.686;10.842;2023-04-16T04:44:43;11.50;99.90
23291;DHT22;11814;44.686;10.842;2023-04-16T04:47:08;11.50;99.90
23291;DHT22;11814;44.686;10.842;2023-04-16T04:49:34;11.50;99.90
23291;DHT22;11814;44.686;10.842;2023-04-16T04:52:00;11.50;99.90
23291;DHT22;11814;44.686;10.842;2023-04-16T04:54:27;11.50;99.90
23291;DHT22;11814;44.686;10.842;2023-04-16T04:56:53;11.50;99.90
23291;DHT22;11814;44.686;10.842;2023-04-16T04:59:20;11.50;99.90
23291;DHT22;11814;44.686;10.842;2023-04-16T05:01:46;11.50;99.90
23291;DHT22;11814;44.686;10.842;2023-04-16T05:04:11;11.50;99.90
23291;DHT22;11814;44.686;10.842;2023-04-16T05:06:37;11.50;99.90
23291;DHT22;11814;44.686;10.842;2023-04-16T05:09:03;11.40;99.90
23291;DHT22;11814;44.686;10.842;2023-04-16T05:11:28;11.50;99.90
23291;DHT22;11814;44.686;10.842;2023-04-16T05:13:54;11.50;99.90
23291;DHT22;11814;44.686;10.842;2023-04-16T05:16:20;11.50;99.90
23291;DHT22;11814;44.686;10.842;2023-04-16T05:18:46;11.50;99.90
23291;DHT22;11814;44.686;10.842;2023-04-16T05:21:12;11.50;99.90
23291;DHT22;11814;44.686;10.842;2023-04-16T05:23:37;11.70;99.90
23291;DHT22;11814;44.686;10.842;2023-04-16T05:26:03;12.50;99.90
23291;DHT22;11814;44.686;10.842;2023-04-16T05:28:29;13.70;99.90
23291;DHT22;11814;44.686;10.842;2023-04-16T05:30:55;14.90;99.90
23291;DHT22;11814;44.686;10.842;2023-04-16T05:33:21;15.60;99.90
23291;DHT22;11814;44.686;10.842;2023-04-16T05:35:46;15.90;99.90
23291;DHT22;11814;44.686;10.842;2023-04-16T05:38:12;16.10;98.90
23291;DHT22;11814;44.686;10.842;2023-04-16T05:40:38;16.40;96.80
23291;DHT22;11814;44.686;10.842;2023-04-16T05:43:04;16.30;95.00
23291;DHT22;11814;44.686;10.842;2023-04-16T05:45:29;16.10;94.10
23291;DHT22;11814;44.686;10.842;2023-04-16T05:47:57;15.90;93.80
23291;DHT22;11814;44.686;10.842;2023-04-16T05:50:23;15.60;93.70
23291;DHT22;11814;44.686;10.842;2023-04-16T05:52:49;15.40;93.80
23291;DHT22;11814;44.686;10.842;2023-04-16T05:55:15;15.10;94.00
23291;DHT22;11814;44.686;10.842;2023-04-16T05:57:40;14.90;94.60
23291;DHT22;11814;44.686;10.842;2023-04-16T06:00:06;14.90;95.10
23291;DHT22;11814;44.686;10.842;2023-04-16T06:02:32;14.90;95.20
23291;DHT22;11814;44.686;10.842;2023-04-16T06:04:58;14.90;95.70
23291;DHT22;11814;44.686;10.842;2023-04-16T06:07:24;15.20;95.60
23291;DHT22;11814;44.686;10.842;2023-04-16T06:09:50;15.50;94.80
23291;DHT22;11814;44.686;10.842;2023-04-16T06:12:15;15.50;94.70
23291;DHT22;11814;44.686;10.842;2023-04-16T06:14:41;15.60;94.80
23291;DHT22;11814;44.686;10.842;2023-04-16T06:17:07;15.90;94.30
23291;DHT22;11814;44.686;10.842;2023-04-16T06:19:32;16.10;94.20
23291;DHT22;11814;44.686;10.842;2023-04-16T06:21:58;16.40;93.90
23291;DHT22;11814;44.686;10.842;2023-04-16T06:24:24;16.60;92.90
23291;DHT22;11814;44.686;10.842;2023-04-16T06:26:50;16.80;92.10
23291;DHT22;11814;44.686;10.842;2023-04-16T06:29:15;16.90;91.90
23291;DHT22;11814;44.686;10.842;2023-04-16T06:31:41;17.40;91.60
23291;DHT22;11814;44.686;10.842;2023-04-16T06:34:07;18.10;90.70
23291;DHT22;11814;44.686;10.842;2023-04-16T06:36:32;18.70;88.40
23291;DHT22;11814;44.686;10.842;2023-04-16T06:38:58;19.00;84.10
23291;DHT22;11814;44.686;10.842;2023-04-16T06:41:24;19.00;81.20
23291;DHT22;11814;44.686;10.842;2023-04-16T06:43:51;18.80;80.10
23291;DHT22;11814;44.686;10.842;2023-04-16T06:46:17;18.50;79.90
23291;DHT22;11814;44.686;10.842;2023-04-16T06:48:42;18.20;80.30
23291;DHT22;11814;44.686;10.842;2023-04-16T06:51:08;17.80;81.00
23291;DHT22;11814;44.686;10.842;2023-04-16T06:53:36;17.50;81.90
23291;DHT22;11814;44.686;10.842;2023-04-16T06:56:02;17.20;82.80
23291;DHT22;11814;44.686;10.842;2023-04-16T06:58:27;17.00;83.60
23291;DHT22;11814;44.686;10.842;2023-04-16T07:00:53;16.70;84.10
23291;DHT22;11814;44.686;10.842;2023-04-16T07:03:19;16.50;84.70
23291;DHT22;11814;44.686;10.842;2023-04-16T07:05:45;16.50;85.70
23291;DHT22;11814;44.686;10.842;2023-04-16T07:08:10;16.60;85.90
23291;DHT22;11814;44.686;10.842;2023-04-16T07:10:37;16.70;86.00
23291;DHT22;11814;44.686;10.842;2023-04-16T07:13:02;16.90;86.20
23291;DHT22;11814;44.686;10.842;2023-04-16T07:15:28;17.20;85.80
23291;DHT22;11814;44.686;10.842;2023-04-16T07:17:54;17.30;84.80
23291;DHT22;11814;44.686;10.842;2023-04-16T07:20:20;17.30;84.50
23291;DHT22;11814;44.686;10.842;2023-04-16T07:22:45;17.20;84.40
23291;DHT22;11814;44.686;10.842;2023-04-16T07:25:11;17.10;85.00
23291;DHT22;11814;44.686;10.842;2023-04-16T07:27:37;17.00;85.10
23291;DHT22;11814;44.686;10.842;2023-04-16T07:30:03;16.80;85.70
23291;DHT22;11814;44.686;10.842;2023-04-16T07:32:29;16.70;86.70
23291;DHT22;11814;44.686;10.842;2023-04-16T07:34:55;16.80;87.40
23291;DHT22;11814;44.686;10.842;2023-04-16T07:37:21;17.10;87.70
23291;DHT22;11814;44.686;10.842;2023-04-16T07:39:47;17.40;87.20
23291;DHT22;11814;44.686;10.842;2023-04-16T07:42:13;17.70;85.90
23291;DHT22;11814;44.686;10.842;2023-04-16T07:44:38;17.80;85.10
23291;DHT22;11814;44.686;10.842;2023-04-16T07:47:04;17.90;84.40
23291;DHT22;11814;44.686;10.842;2023-04-16T07:49:30;17.90;83.70
23291;DHT22;11814;44.686;10.842;2023-04-16T07:51:56;17.80;83.20
23291;DHT22;11814;44.686;10.842;2023-04-16T07:54:21;17.70;84.00
23291;DHT22;11814;44.686;10.842;2023-04-16T07:56:47;17.80;84.10
23291;DHT22;11814;44.686;10.842;2023-04-16T07:59:13;17.90;84.00
23291;DHT22;11814;44.686;10.842;2023-04-16T08:01:39;18.10;84.30
23291;DHT22;11814;44.686;10.842;2023-04-16T08:04:05;18.30;84.00
23291;DHT22;11814;44.686;10.842;2023-04-16T08:06:30;18.70;84.20
23291;DHT22;11814;44.686;10.842;2023-04-16T08:08:56;18.90;80.90
23291;DHT22;11814;44.686;10.842;2023-04-16T08:11:22;18.90;81.00
23291;DHT22;11814;44.686;10.842;2023-04-16T08:13:48;19.10;80.90
23291;DHT22;11814;44.686;10.842;2023-04-16T08:16:14;19.40;79.60
23291;DHT22;11814;44.686;10.842;2023-04-16T08:18:40;19.60;78.20
23291;DHT22;11814;44.686;10.842;2023-04-16T08:21:06;19.60;77.30
23291;DHT22;11814;44.686;10.842;2023-04-16T08:23:32;19.50;76.50
23291;DHT22;11814;44.686;10.842;2023-04-16T08:25:57;19.30;76.90
23291;DHT22;11814;44.686;10.842;2023-04-16T08:28:23;19.20;77.20
23291;DHT22;11814;44.686;10.842;2023-04-16T08:30:49;18.90;77.40
23291;DHT22;11814;44.686;10.842;2023-04-16T08:33:15;19.00;78.30
23291;DHT22;11814;44.686;10.842;2023-04-16T08:35:40;19.20;78.40
23291;DHT22;11814;44.686;10.842;2023-04-16T08:38:06;19.30;77.60
23291;DHT22;11814;44.686;10.842;2023-04-16T08:40:34;19.30;77.20
23291;DHT22;11814;44.686;10.842;2023-04-16T08:43:02;19.20;77.00
23291;DHT22;11814;44.686;10.842;2023-04-16T08:45:29;19.00;76.90
23291;DHT22;11814;44.686;10.842;2023-04-16T08:47:56;19.00;77.20
23291;DHT22;11814;44.686;10.842;2023-04-16T08:50:24;18.80;77.50
23291;DHT22;11814;44.686;10.842;2023-04-16T08:52:52;18.80;77.80
23291;DHT22;11814;44.686;10.842;2023-04-16T08:55:22;18.60;78.00
23291;DHT22;11814;44.686;10.842;2023-04-16T08:57:53;18.40;78.70
23291;DHT22;11814;44.686;10.842;2023-04-16T09:00:23;18.40;78.50
23291;DHT22;11814;44.686;10.842;2023-04-16T09:02:49;18.30;77.70
23291;DHT22;11814;44.686;10.842;2023-04-16T09:05:16;18.10;78.20
23291;DHT22;11814;44.686;10.842;2023-04-16T09:07:44;18.10;77.80
23291;DHT22;11814;44.686;10.842;2023-04-16T09:10:11;18.00;77.80
23291;DHT22;11814;44.686;10.842;2023-04-16T09:12:37;18.00;77.70
23291;DHT22;11814;44.686;10.842;2023-04-16T09:15:05;18.00;77.20
23291;DHT22;11814;44.686;10.842;2023-04-16T09:17:31;18.10;76.90
23291;DHT22;11814;44.686;10.842;2023-04-16T09:19:57;18.10;77.80
23291;DHT22;11814;44.686;10.842;2023-04-16T09:22:22;18.30;77.00
23291;DHT22;11814;44.686;10.842;2023-04-16T09:24:48;18.30;76.00
23291;DHT22;11814;44.686;10.842;2023-04-16T09:27:14;18.40;75.20
23291;DHT22;11814;44.686;10.842;2023-04-16T09:29:41;18.40;74.50
23291;DHT22;11814;44.686;10.842;2023-04-16T09:32:09;18.50;74.40
23291;DHT22;11814;44.686;10.842;2023-04-16T09:37:19;18.50;70.90
23291;DHT22;11814;44.686;10.842;2023-04-16T09:39:55;18.40;70.70
23291;DHT22;11814;44.686;10.842;2023-04-16T09:42:23;18.40;70.90
23291;DHT22;11814;44.686;10.842;2023-04-16T09:44:49;18.50;71.20
23291;DHT22;11814;44.686;10.842;2023-04-16T09:47:16;18.60;70.70
23291;DHT22;11814;44.686;10.842;2023-04-16T09:49:42;18.60;67.90
23291;DHT22;11814;44.686;10.842;2023-04-16T09:52:18;18.50;67.20
23291;DHT22;11814;44.686;10.842;2023-04-16T09:54:48;18.60;67.40
23291;DHT22;11814;44.686;10.842;2023-04-16T09:57:20;18.70;66.70
23291;DHT22;11814;44.686;10.842;2023-04-16T10:00:08;18.70;65.10
23291;DHT22;11814;44.686;10.842;2023-04-16T10:02:39;18.70;64.30
23291;DHT22;11814;44.686;10.842;2023-04-16T10:05:06;18.70;63.20
23291;DHT22;11814;44.686;10.842;2023-04-16T10:07:36;18.70;64.10
23291;DHT22;11814;44.686;10.842;2023-04-16T10:10:03;18.90;64.20
23291;DHT22;11814;44.686;10.842;2023-04-16T10:12:29;19.00;63.00
23291;DHT22;11814;44.686;10.842;2023-04-16T10:14:57;19.10;62.60
23291;DHT22;11814;44.686;10.842;2023-04-16T10:17:23;19.20;62.20
23291;DHT22;11814;44.686;10.842;2023-04-16T10:19:49;19.10;61.80
23291;DHT22;11814;44.686;10.842;2023-04-16T10:22:15;19.20;62.00
23291;DHT22;11814;44.686;10.842;2023-04-16T10:24:42;19.20;61.60
23291;DHT22;11814;44.686;10.842;2023-04-16T10:27:07;19.20;61.40
23291;DHT22;11814;44.686;10.842;2023-04-16T10:29:34;19.20;61.40
23291;DHT22;11814;44.686;10.842;2023-04-16T10:32:01;19.30;60.90
23291;DHT22;11814;44.686;10.842;2023-04-16T10:34:28;19.40;60.10
23291;DHT22;11814;44.686;10.842;2023-04-16T10:36:54;19.40;59.80
23291;DHT22;11814;44.686;10.842;2023-04-16T10:39:26;19.30;59.80
23291;DHT22;11814;44.686;10.842;2023-04-16T10:42:11;19.30;59.80
23291;DHT22;11814;44.686;10.842;2023-04-16T10:44:39;19.30;59.10
23291;DHT22;11814;44.686;10.842;2023-04-16T10:47:12;19.20;59.20
23291;DHT22;11814;44.686;10.842;2023-04-16T10:49:38;19.30;59.80
23291;DHT22;11814;44.686;10.842;2023-04-16T10:52:10;19.30;59.90
23291;DHT22;11814;44.686;10.842;2023-04-16T10:54:36;19.40;60.00
23291;DHT22;11814;44.686;10.842;2023-04-16T10:57:13;19.40;60.90
23291;DHT22;11814;44.686;10.842;2023-04-16T10:59:41;19.40;60.50
23291;DHT22;11814;44.686;10.842;2023-04-16T11:02:14;19.50;60.40
23291;DHT22;11814;44.686;10.842;2023-04-16T11:04:45;19.50;60.00
23291;DHT22;11814;44.686;10.842;2023-04-16T11:09:55;19.40;59.40
23291;DHT22;11814;44.686;10.842;2023-04-16T11:15:04;19.30;59.20
23291;DHT22;11814;44.686;10.842;2023-04-16T11:20:22;19.40;59.00
23291;DHT22;11814;44.686;10.842;2023-04-16T11:22:49;19.50;58.70
23291;DHT22;11814;44.686;10.842;2023-04-16T11:25:22;19.50;58.10
23291;DHT22;11814;44.686;10.842;2023-04-16T11:27:49;19.50;58.00
23291;DHT22;11814;44.686;10.842;2023-04-16T11:30:15;19.50;58.00
23291;DHT22;11814;44.686;10.842;2023-04-16T11:32:43;19.50;57.70
23291;DHT22;11814;44.686;10.842;2023-04-16T11:35:18;19.40;57.70
23291;DHT22;11814;44.686;10.842;2023-04-16T11:37:44;19.50;58.60
23291;DHT22;11814;44.686;10.842;2023-04-16T11:40:11;19.60;59.20
23291;DHT22;11814;44.686;10.842;2023-04-16T11:42:39;19.70;59.20
23291;DHT22;11814;44.686;10.842;2023-04-16T11:45:06;19.80;59.10
23291;DHT22;11814;44.686;10.842;2023-04-16T11:47:42;19.80;58.50
23291;DHT22;11814;44.686;10.842;2023-04-16T11:50:24;19.80;58.50
23291;DHT22;11814;44.686;10.842;2023-04-16T11:52:51;19.80;57.10
23291;DHT22;11814;44.686;10.842;2023-04-16T11:55:18;19.70;56.70
23291;DHT22;11814;44.686;10.842;2023-04-16T11:57:44;19.70;56.00
23291;DHT22;11814;44.686;10.842;2023-04-16T12:00:11;19.70;56.00
23291;DHT22;11814;44.686;10.842;2023-04-16T12:02:48;19.70;55.70
23291;DHT22;11814;44.686;10.842;2023-04-16T12:07:55;19.80;56.30
23291;DHT22;11814;44.686;10.842;2023-04-16T12:10:21;19.80;55.90
23291;DHT22;11814;44.686;10.842;2023-04-16T12:12:47;19.80;56.10
23291;DHT22;11814;44.686;10.842;2023-04-16T12:15:13;19.70;56.10
23291;DHT22;11814;44.686;10.842;2023-04-16T12:17:38;19.70;56.20
23291;DHT22;11814;44.686;10.842;2023-04-16T12:20:12;19.70;56.00
23291;DHT22;11814;44.686;10.842;2023-04-16T12:22:46;19.70;56.60
23291;DHT22;11814;44.686;10.842;2023-04-16T12:25:15;19.80;56.30
23291;DHT22;11814;44.686;10.842;2023-04-16T12:27:45;19.70;56.40
23291;DHT22;11814;44.686;10.842;2023-04-16T12:30:12;19.80;56.70
23291;DHT22;11814;44.686;10.842;2023-04-16T12:32:41;19.80;56.70
23291;DHT22;11814;44.686;10.842;2023-04-16T12:35:07;19.90;56.60
23291;DHT22;11814;44.686;10.842;2023-04-16T12:37:34;20.00;56.00
23291;DHT22;11814;44.686;10.842;2023-04-16T12:40:00;19.90;55.80
23291;DHT22;11814;44.686;10.842;2023-04-16T12:42:26;19.90;55.80
23291;DHT22;11814;44.686;10.842;2023-04-16T12:44:52;19.80;55.60
23291;DHT22;11814;44.686;10.842;2023-04-16T12:47:18;19.90;55.70
23291;DHT22;11814;44.686;10.842;2023-04-16T12:49:43;19.90;55.70
23291;DHT22;11814;44.686;10.842;2023-04-16T12:52:10;20.00;55.60
23291;DHT22;11814;44.686;10.842;2023-04-16T12:54:35;19.90;55.40
23291;DHT22;11814;44.686;10.842;2023-04-16T12:57:01;19.90;55.50
23291;DHT22;11814;44.686;10.842;2023-04-16T12:59:28;19.90;55.40
23291;DHT22;11814;44.686;10.842;2023-04-16T13:01:53;19.90;55.20
23291;DHT22;11814;44.686;10.842;2023-04-16T13:04:19;19.90;55.50
23291;DHT22;11814;44.686;10.842;2023-04-16T13:06:45;20.00;55.30
23291;DHT22;11814;44.686;10.842;2023-04-16T13:09:10;19.90;55.00
23291;DHT22;11814;44.686;10.842;2023-04-16T13:11:36;19.90;55.00
23291;DHT22;11814;44.686;10.842;2023-04-16T13:14:02;19.90;55.20
23291;DHT22;11814;44.686;10.842;2023-04-16T13:16:28;19.80;55.20
23291;DHT22;11814;44.686;10.842;2023-04-16T13:18:53;19.80;55.50
23291;DHT22;11814;44.686;10.842;2023-04-16T13:21:19;19.80;56.00
23291;DHT22;11814;44.686;10.842;2023-04-16T13:23:45;19.90;56.00
23291;DHT22;11814;44.686;10.842;2023-04-16T13:26:11;20.00;56.20
23291;DHT22;11814;44.686;10.842;2023-04-16T13:28:39;20.00;55.80
23291;DHT22;11814;44.686;10.842;2023-04-16T13:31:05;20.00;55.70
23291;DHT22;11814;44.686;10.842;2023-04-16T13:33:31;20.00;55.70
23291;DHT22;11814;44.686;10.842;2023-04-16T13:35:56;20.00;55.80
23291;DHT22;11814;44.686;10.842;2023-04-16T13:38:22;20.10;55.90
23291;DHT22;11814;44.686;10.842;2023-04-16T13:40:48;20.20;55.80
23291;DHT22;11814;44.686;10.842;2023-04-16T13:43:13;20.20;55.70
23291;DHT22;11814;44.686;10.842;2023-04-16T13:45:41;20.10;55.30
23291;DHT22;11814;44.686;10.842;2023-04-16T13:48:07;20.10;55.30
23291;DHT22;11814;44.686;10.842;2023-04-16T13:50:33;20.10;55.10
23291;DHT22;11814;44.686;10.842;2023-04-16T13:52:59;20.20;55.30
23291;DHT22;11814;44.686;10.842;2023-04-16T13:55:25;20.20;55.10
23291;DHT22;11814;44.686;10.842;2023-04-16T13:57:51;20.30;55.30
23291;DHT22;11814;44.686;10.842;2023-04-16T14:00:18;20.40;55.00
23291;DHT22;11814;44.686;10.842;2023-04-16T14:02:44;20.40;53.60
23291;DHT22;11814;44.686;10.842;2023-04-16T14:05:13;20.40;53.60
23291;DHT22;11814;44.686;10.842;2023-04-16T14:07:39;20.40;53.20
23291;DHT22;11814;44.686;10.842;2023-04-16T14:10:05;20.30;52.80
23291;DHT22;11814;44.686;10.842;2023-04-16T14:12:31;20.40;52.90
23291;DHT22;11814;44.686;10.842;2023-04-16T14:14:57;20.40;53.10
23291;DHT22;11814;44.686;10.842;2023-04-16T14:17:22;20.30;52.70
23291;DHT22;11814;44.686;10.842;2023-04-16T14:19:48;20.30;53.20
23291;DHT22;11814;44.686;10.842;2023-04-16T14:22:14;20.40;53.20
23291;DHT22;11814;44.686;10.842;2023-04-16T14:24:42;20.40;52.40
23291;DHT22;11814;44.686;10.842;2023-04-16T14:27:08;20.30;52.30
23291;DHT22;11814;44.686;10.842;2023-04-16T14:29:34;20.20;52.50
23291;DHT22;11814;44.686;10.842;2023-04-16T14:32:01;20.10;52.90
23291;DHT22;11814;44.686;10.842;2023-04-16T14:34:27;20.10;53.10
23291;DHT22;11814;44.686;10.842;2023-04-16T14:36:52;20.30;53.30
23291;DHT22;11814;44.686;10.842;2023-04-16T14:39:19;20.40;53.20
23291;DHT22;11814;44.686;10.842;2023-04-16T14:41:45;20.50;53.20
23291;DHT22;11814;44.686;10.842;2023-04-16T14:44:11;20.50;53.30
23291;DHT22;11814;44.686;10.842;2023-04-16T14:46:36;20.40;53.30
23291;DHT22;11814;44.686;10.842;2023-04-16T14:49:05;20.40;53.00
23291;DHT22;11814;44.686;10.842;2023-04-16T14:51:31;20.30;53.10
23291;DHT22;11814;44.686;10.842;2023-04-16T14:53:57;20.30;53.20
23291;DHT22;11814;44.686;10.842;2023-04-16T14:56:22;20.40;53.20
23291;DHT22;11814;44.686;10.842;2023-04-16T14:58:48;20.40;53.10
23291;DHT22;11814;44.686;10.842;2023-04-16T15:01:14;20.50;53.20
23291;DHT22;11814;44.686;10.842;2023-04-16T15:03:40;20.60;52.60
23291;DHT22;11814;44.686;10.842;2023-04-16T15:06:07;20.50;52.60
23291;DHT22;11814;44.686;10.842;2023-04-16T15:08:33;20.40;52.50
23291;DHT22;11814;44.686;10.842;2023-04-16T15:10:58;20.20;52.70
23291;DHT22;11814;44.686;10.842;2023-04-16T15:13:24;20.10;53.10
23291;DHT22;11814;44.686;10.842;2023-04-16T15:15:58;20.10;53.40
23291;DHT22;11814;44.686;10.842;2023-04-16T15:18:25;20.10;53.90
23291;DHT22;11814;44.686;10.842;2023-04-16T15:20:50;20.20;53.90
23291;DHT22;11814;44.686;10.842;2023-04-16T15:23:18;20.20;54.00
23291;DHT22;11814;44.686;10.842;2023-04-16T15:25:44;20.20;53.80